ENKB/KSU METAR and TAF weather

Enter ICAO airport designator
Station Type Date Time Source
ENKB METAR 2019/11/14 03:50 UTC NOAA

ENKB 140350Z AUTO VRB01KT 9999 OVC070/// 02/01 Q1002 RMK WIND 745FT 15003KT


Station Type Date Time Source
ENKB Decoded METAR 2019/11/14 03:50 UTC NOAA

Kristiansund / Kvernberget, Norway (ENKB) 63-07N 007-50E 62M
Nov 13, 2019 - 10:50 PM EST / 2019.11.14 0350 UTC
Wind: Variable at 1 MPH (1 KT):0
Visibility: greater than 7 mile(s):0
Sky conditions: overcast
Temperature: 35 F (2 C)
Dew Point: 33 F (1 C)
Relative Humidity: 93%
Pressure (altimeter): 29.59 in. Hg (1002 hPa)
ob: ENKB 140350Z AUTO VRB01KT 9999 OVC070/// 02/01 Q1002 RMK WIND 745FT 15003KT
cycle: 4

Station Type Date Time Source
ENKB TAF 2010/02/05 07:50 UTC NOAA

METAR ENKB 050750Z 15011KT 110V200 9999 SCT055 BKN070 03/M05 Q1007

Example: see airport list